Terminal Aerodrome Forecast
Issued by NWS Tuscon, AZ

Home | Current Version | Previous Version | Text Only | Print | Product List | Glossary On
Versions: 1 2 3 4 5 6 7 8 9 10 11 12 13 14 15
663
FTUS45 KTWC 281120
TAFDUG
TAF
KDUG 281120Z 2812/2912 VRB04KT P6SM BKN120
     FM281700 09010G17KT P6SM SCT120
     FM282000 08012G19KT P6SM FEW080 SCT120
     FM290300 12009KT P6SM FEW060 SCT100 BKN150
     FM290700 10005KT P6SM FEW100 SCT150=

USA.gov is the U.S. government's official web portal to all federal, state and local government web resources and services.